Flugplatz Finsterwalde/Heinrichsruh

Für EDAS sind keine METAR/TAF Berichte vorhanden.
Es werden die Flugwettermeldungen vom Flugplatz Holzdorf Airport in 37 km Entfernung angezeigt.

Bericht für ETSH

vom 14.11. um 10:20 UTC

Wind 7 kt aus 140°

Sichtweite 10 km oder mehr

gering bewölkt in 30000 ft

Temperatur 7.0°C

Taupunkt 1.0°C

Luftfeuchtigkeit 66%

Luftdruck 1009 hPa

ETSH 141020Z 14007KT 9999 FEW300 07/01 Q1009 BLU+BLU+

Prognose für ETSH

vom 14.11. um 00:00 UTC

Zwischen 00:00 UTC und 00:00 UTC

Wind 5 kt aus 140°

Sichtweite 10 km oder mehr

keine signifikanten Wettererscheinungen

aufgelockert bewölkt in 6000 ft

TAF ETSH 140830Z 1409/1418 14005KT 9999 NSW SCT060
Impressum